NOAA Web Site Link Tides and Currents Home Page Transparent placeholder image

On Saturday, June 23rd, 2018 starting at 7:30 a.m to 8 p.m. EDT, there will be a system maintenance performed affecting the Tides and Currents web site (https://tidesandcurrents.noaa.gov). During this time, the Tides and Currents website will be running with limited capabilities. Click here for more information.

PORTS® Data Listing: 8555889 Brandywine Shoal Light, DE

CO-OPS RAW PORTS DATA

************************      PRELIMINARY DATA      ************************** 

     THIS RAW DATA HAS NOT BEEN SUBJECT TO THE NATIONAL OCEAN SERVICE'S        
     QUALITY CONTROL OR QUALITY ASSURANCE PROCEDURES AND DOES NOT MEET         
     THE CRITERIA AND STANDARDS OF OFFICIAL NATIONAL OCEAN SERVICE             
     DATA.  IT IS RELEASED FOR LIMITED PUBLIC USE AS PRELIMINARY DATA TO       
     BE USED ONLY WITH APPROPRIATE CAUTION.                                    

************************      PRELIMINARY DATA      ************************** 


       CD   -   Calendar date
       T    -   Time
       TZ   -   Timezone
       PW   -   Predicted water level (feet above MLLW)
       OW   -   Observed water level (feet above MLLW)
       WS   -   Wind speed (knots)
       WD   -   Wind direction (degrees true)
       WG   -   Wind gust (knots)
       AT   -   Air temperature (degrees farenheit)
       WT   -   Water temperature (degrees farenheit)
       AP   -   Air pressure (millibars)
       SA   -   Salinty (PSU - Practical Salinity Units)
       SG   -   Specific gravity
       RH   -   Relative humidity
       AG   -   Air gap (feet)
       VI   -   Visibility (nautical miles)

       ** NOTE **
       A variable that has its data fields filled with "9"s, indicates that
       data was not collected for that sample period.
       **********


STATION NAME: Brandywine Shoal Light (8555889)
****************************************************************************************************
    CD       T    TZ    PW     OW    WS   WD   WG    AT    WT    AP    SA    SG     RH    AG   VI
****************************************************************************************************
2018/06/22 02:48 EDT    3.61   4.36    7  155    8  71.2 -99.9 1011.0 -9.9 -9.999 -99.9 -99.99 -9.99
2018/06/22 02:54 EDT    3.71   4.46    7  148    8  70.9 -99.9 1011.0 -9.9 -9.999 -99.9 -99.99 -9.99
2018/06/22 03:00 EDT    3.82   4.55    7  148    8  70.9 -99.9 1011.0 -9.9 -9.999 -99.9 -99.99 -9.99
2018/06/22 03:06 EDT    3.92   4.66    7  136    8  70.7 -99.9 1011.0 -9.9 -9.999 -99.9 -99.99 -9.99
2018/06/22 03:12 EDT    4.01   4.71    7  139    8  70.5 -99.9 1010.8 -9.9 -9.999 -99.9 -99.99 -9.99
2018/06/22 03:18 EDT    4.10   4.81    8  131    8  70.3 -99.9 1010.8 -9.9 -9.999 -99.9 -99.99 -9.99
2018/06/22 03:24 EDT    4.19   4.88    7  131    9  70.5 -99.9 1011.0 -9.9 -9.999 -99.9 -99.99 -9.99
2018/06/22 03:30 EDT    4.28   4.97    7  127    8  70.3 -99.9 1011.0 -9.9 -9.999 -99.9 -99.99 -9.99
2018/06/22 03:36 EDT    4.36   5.02    7  127    8  70.3 -99.9 1011.0 -9.9 -9.999 -99.9 -99.99 -9.99
2018/06/22 03:42 EDT    4.44   5.10    7  124    8  70.3 -99.9 1011.1 -9.9 -9.999 -99.9 -99.99 -9.99
2018/06/22 03:48 EDT    4.51   5.14    7  120    8  70.3 -99.9 1011.2 -9.9 -9.999 -99.9 -99.99 -9.99
2018/06/22 03:54 EDT    4.58   5.22    7  117    8  70.3 -99.9 1011.3 -9.9 -9.999 -99.9 -99.99 -9.99
2018/06/22 04:00 EDT    4.64   5.28    8  119    8  70.2 -99.9 1011.4 -9.9 -9.999 -99.9 -99.99 -9.99
2018/06/22 04:06 EDT    4.70   5.34    8  112    8  70.2 -99.9 1011.3 -9.9 -9.999 -99.9 -99.99 -9.99
2018/06/22 04:12 EDT    4.75   5.39    7  106    8  70.2 -99.9 1011.3 -9.9 -9.999 -99.9 -99.99 -9.99
2018/06/22 04:18 EDT    4.80   5.44    9  102   10  70.5 -99.9 1011.2 -9.9 -9.999 -99.9 -99.99 -9.99
2018/06/22 04:24 EDT    4.84   5.48   10   95   11  70.5 -99.9 1011.1 -9.9 -9.999 -99.9 -99.99 -9.99
2018/06/22 04:30 EDT    4.88   5.51   11   89   12  70.9 -99.9 1011.2 -9.9 -9.999 -99.9 -99.99 -9.99
2018/06/22 04:36 EDT    4.91   5.55   11   96   12  71.1 -99.9 1011.2 -9.9 -9.999 -99.9 -99.99 -9.99
2018/06/22 04:42 EDT    4.94   5.57   10   97   12  71.1 -99.9 1011.4 -9.9 -9.999 -99.9 -99.99 -9.99
2018/06/22 04:48 EDT    4.95   5.57   11   92   12  70.9 -99.9 1011.3 -9.9 -9.999 -99.9 -99.99 -9.99
2018/06/22 04:54 EDT    4.97   5.61   10   94   12  70.9 -99.9 1011.5 -9.9 -9.999 -99.9 -99.99 -9.99
2018/06/22 05:00 EDT    4.97   5.62   11   89   12  70.9 -99.9 1011.6 -9.9 -9.999 -99.9 -99.99 -9.99
2018/06/22 05:06 EDT    4.98   5.61   12   83   12  70.7 -99.9 1011.6 -9.9 -9.999 -99.9 -99.99 -9.99
2018/06/22 05:12 EDT    4.97   5.57   13   80   14  70.7 -99.9 1011.6 -9.9 -9.999 -99.9 -99.99 -9.99
2018/06/22 05:18 EDT    4.96   5.56   14   78   15  70.7 -99.9 1011.6 -9.9 -9.999 -99.9 -99.99 -9.99
2018/06/22 05:24 EDT    4.94   5.55   13   80   15  70.5 -99.9 1011.8 -9.9 -9.999 -99.9 -99.99 -9.99
2018/06/22 05:30 EDT    4.92   5.51   15   86   16  70.3 -99.9 1011.9 -9.9 -9.999 -99.9 -99.99 -9.99
2018/06/22 05:36 EDT    4.89   5.47   15   86   16  70.3 -99.9 1012.0 -9.9 -9.999 -99.9 -99.99 -9.99
2018/06/22 05:42 EDT    4.85   5.45   15   86   16  70.3 -99.9 1012.0 -9.9 -9.999 -99.9 -99.99 -9.99
2018/06/22 05:48 EDT    4.81   5.37   13   89   16  70.2 -99.9 1012.0 -9.9 -9.999 -99.9 -99.99 -9.99
2018/06/22 05:54 EDT    4.77   5.34   13   87   15  70.2 -99.9 1012.2 -9.9 -9.999 -99.9 -99.99 -9.99
2018/06/22 06:00 EDT    4.71   5.32   15   91   17  70.2 -99.9 1012.3 -9.9 -9.999 -99.9 -99.99 -9.99
2018/06/22 06:06 EDT    4.66   5.27   15   91   17  70.2 -99.9 1012.3 -9.9 -9.999 -99.9 -99.99 -9.99
2018/06/22 06:12 EDT    4.60   5.20   16   95   19  70.0 -99.9 1012.3 -9.9 -9.999 -99.9 -99.99 -9.99
2018/06/22 06:18 EDT    4.53   5.16   16  104   19  69.6 -99.9 1012.5 -9.9 -9.999 -99.9 -99.99 -9.99
2018/06/22 06:24 EDT    4.46   5.08   19  106   20  69.3 -99.9 1012.5 -9.9 -9.999 -99.9 -99.99 -9.99
2018/06/22 06:30 EDT    4.38   4.98   18   99   20  69.1 -99.9 1012.5 -9.9 -9.999 -99.9 -99.99 -9.99
2018/06/22 06:36 EDT    4.30   4.92   19   96   21  68.9 -99.9 1012.5 -9.9 -9.999 -99.9 -99.99 -9.99
2018/06/22 06:42 EDT    4.21   4.86   19   93   22  68.7 -99.9 1012.5 -9.9 -9.999 -99.9 -99.99 -9.99
2018/06/22 06:48 EDT    4.12   4.78   19   93   21  68.5 -99.9 1012.5 -9.9 -9.999 -99.9 -99.99 -9.99
2018/06/22 06:54 EDT    4.03   4.72   17   98   23  68.5 -99.9 1012.6 -9.9 -9.999 -99.9 -99.99 -9.99
2018/06/22 07:00 EDT    3.93   4.63   18   96   24  68.5 -99.9 1012.6 -9.9 -9.999 -99.9 -99.99 -9.99
2018/06/22 07:06 EDT    3.83   4.51   20   95   23  68.7 -99.9 1012.5 -9.9 -9.999 -99.9 -99.99 -9.99
2018/06/22 07:12 EDT    3.72   4.43   20   96   22  68.7 -99.9 1012.6 -9.9 -9.999 -99.9 -99.99 -9.99
2018/06/22 07:18 EDT    3.62   4.32   20   95   21  68.9 -99.9 1012.6 -9.9 -9.999 -99.9 -99.99 -9.99
2018/06/22 07:24 EDT    3.50   4.23   20   94   22  68.7 -99.9 1012.8 -9.9 -9.999 -99.9 -99.99 -9.99
2018/06/22 07:30 EDT    3.39   4.12   20   98   22  68.7 -99.9 1012.9 -9.9 -9.999 -99.9 -99.99 -9.99
2018/06/22 07:36 EDT    3.27   4.01   20   97   22  68.7 -99.9 1012.9 -9.9 -9.999 -99.9 -99.99 -9.99
2018/06/22 07:42 EDT    3.15   3.88   19   95   23  68.7 -99.9 1013.0 -9.9 -9.999 -99.9 -99.99 -9.99
2018/06/22 07:48 EDT    3.03   3.77   20  100   23  68.7 -99.9 1013.1 -9.9 -9.999 -99.9 -99.99 -9.99
2018/06/22 07:54 EDT    2.91   3.65   19   95   23  68.7 -99.9 1013.2 -9.9 -9.999 -99.9 -99.99 -9.99
2018/06/22 08:00 EDT    2.79   3.54   20   98   23  68.7 -99.9 1013.3 -9.9 -9.999 -99.9 -99.99 -9.99
2018/06/22 08:06 EDT    2.66   3.44   22   98   24  69.1 -99.9 1013.3 -9.9 -9.999 -99.9 -99.99 -9.99
2018/06/22 08:12 EDT    2.53   3.30   22  103   25  68.9 -99.9 1013.3 -9.9 -9.999 -99.9 -99.99 -9.99
2018/06/22 08:18 EDT    2.41   3.17   24  101   25  69.1 -99.9 1013.4 -9.9 -9.999 -99.9 -99.99 -9.99
2018/06/22 08:24 EDT    2.28   3.10   21  106   27  69.1 -99.9 1013.5 -9.9 -9.999 -99.9 -99.99 -9.99
2018/06/22 08:30 EDT    2.15   2.99   21  101   24  69.1 -99.9 1013.5 -9.9 -9.999 -99.9 -99.99 -9.99
2018/06/22 08:36 EDT    2.02   2.87   21  110   24  69.3 -99.9 1013.6 -9.9 -9.999 -99.9 -99.99 -9.99
2018/06/22 08:42 EDT    1.90   2.76   23  102   25  69.3 -99.9 1013.5 -9.9 -9.999 -99.9 -99.99 -9.99
2018/06/22 08:48 EDT    1.77   2.66   20  104   25  69.3 -99.9 1013.8 -9.9 -9.999 -99.9 -99.99 -9.99
2018/06/22 08:54 EDT    1.65   2.57   21  106   23  69.1 -99.9 1013.9 -9.9 -9.999 -99.9 -99.99 -9.99
2018/06/22 09:00 EDT    1.53   2.47   18   95   21  68.9 -99.9 1014.0 -9.9 -9.999 -99.9 -99.99 -9.99
2018/06/22 09:06 EDT    1.41   2.40   21   93   23  69.1 -99.9 1014.0 -9.9 -9.999 -99.9 -99.99 -9.99
2018/06/22 09:12 EDT    1.30   2.29   21   93   23  69.1 -99.9 1014.0 -9.9 -9.999 -99.9 -99.99 -9.99
2018/06/22 09:18 EDT    1.19   2.21   17  105   20  69.1 -99.9 1014.2 -9.9 -9.999 -99.9 -99.99 -9.99
2018/06/22 09:24 EDT    1.08   2.11   17  105   20  69.1 -99.9 1014.2 -9.9 -9.999 -99.9 -99.99 -9.99
2018/06/22 09:30 EDT    0.98   2.01   18   98   21  69.3 -99.9 1014.0 -9.9 -9.999 -99.9 -99.99 -9.99
2018/06/22 09:36 EDT    0.88   1.92   23   99   25  69.1 -99.9 1013.9 -9.9 -9.999 -99.9 -99.99 -9.99
2018/06/22 09:42 EDT    0.79   1.84   23  107   25  69.1 -99.9 1014.0 -9.9 -9.999 -99.9 -99.99 -9.99
2018/06/22 09:48 EDT    0.70   1.78   19  104   25  69.4 -99.9 1014.1 -9.9 -9.999 -99.9 -99.99 -9.99
2018/06/22 09:54 EDT    0.62   1.72   23   95   26  69.3 -99.9 1014.1 -9.9 -9.999 -99.9 -99.99 -9.99
2018/06/22 10:00 EDT    0.54   1.65   22  107   25  69.1 -99.9 1014.1 -9.9 -9.999 -99.9 -99.99 -9.99
2018/06/22 10:06 EDT    0.47   1.58   22  107   25  69.1 -99.9 1014.1 -9.9 -9.999 -99.9 -99.99 -9.99
2018/06/22 10:12 EDT    0.40   1.55   24  109   26  69.1 -99.9 1014.2 -9.9 -9.999 -99.9 -99.99 -9.99
2018/06/22 10:18 EDT    0.34   1.51   22  106   26  69.3 -99.9 1014.3 -9.9 -9.999 -99.9 -99.99 -9.99
2018/06/22 10:24 EDT    0.29   1.47   21  103   24  68.9 -99.9 1014.4 -9.9 -9.999 -99.9 -99.99 -9.99
2018/06/22 10:30 EDT    0.24   1.43   21  103   24  68.9 -99.9 1014.4 -9.9 -9.999 -99.9 -99.99 -9.99
2018/06/22 10:36 EDT    0.20   1.41   21  104   25  68.9 -99.9 1014.5 -9.9 -9.999 -99.9 -99.99 -9.99
2018/06/22 10:42 EDT    0.17   1.39   23  106   24  68.7 -99.9 1014.5 -9.9 -9.999 -99.9 -99.99 -9.99
2018/06/22 10:48 EDT    0.14   1.39   21  102   25  68.9 -99.9 1014.5 -9.9 -9.999 -99.9 -99.99 -9.99
2018/06/22 10:54 EDT    0.12   1.35   24   90   26  68.9 -99.9 1014.4 -9.9 -9.999 -99.9 -99.99 -9.99
2018/06/22 11:00 EDT    0.10   1.34   23   95   28  68.7 -99.9 1014.4 -9.9 -9.999 -99.9 -99.99 -9.99
2018/06/22 11:06 EDT    0.09   1.36   23  103   28  68.9 -99.9 1014.6 -9.9 -9.999 -99.9 -99.99 -9.99
2018/06/22 11:12 EDT    0.09   1.35   23   93   28  68.9 -99.9 1014.5 -9.9 -9.999 -99.9 -99.99 -9.99
2018/06/22 11:18 EDT    0.09   1.36   24  100   27  68.7 -99.9 1014.4 -9.9 -9.999 -99.9 -99.99 -9.99
2018/06/22 11:24 EDT    0.09   1.36   25   95   28  68.5 -99.9 1014.3 -9.9 -9.999 -99.9 -99.99 -9.99
2018/06/22 11:30 EDT    0.11   1.37   26   95   28  68.5 -99.9 1014.3 -9.9 -9.999 -99.9 -99.99 -9.99
2018/06/22 11:36 EDT    0.13   1.43   25   96   27  68.5 -99.9 1014.4 -9.9 -9.999 -99.9 -99.99 -9.99
2018/06/22 11:42 EDT    0.15   1.44   24   93   27  68.7 -99.9 1014.4 -9.9 -9.999 -99.9 -99.99 -9.99
2018/06/22 11:48 EDT    0.18   1.48   24   94   27  68.9 -99.9 1014.5 -9.9 -9.999 -99.9 -99.99 -9.99
2018/06/22 11:54 EDT    0.22   1.53   22   97   29  69.3 -99.9 1014.6 -9.9 -9.999 -99.9 -99.99 -9.99
2018/06/22 12:00 EDT    0.26   1.56   27   99   29  68.9 -99.9 1014.4 -9.9 -9.999 -99.9 -99.99 -9.99
2018/06/22 12:06 EDT    0.31   1.60   22   93   27  69.1 -99.9 1014.6 -9.9 -9.999 -99.9 -99.99 -9.99
2018/06/22 12:12 EDT    0.36   1.66   21   99   26  69.1 -99.9 1014.6 -9.9 -9.999 -99.9 -99.99 -9.99
2018/06/22 12:18 EDT    0.42   1.72   23   95   25  69.1 -99.9 1014.6 -9.9 -9.999 -99.9 -99.99 -9.99
2018/06/22 12:24 EDT    0.48   1.76   22   93   25  69.4 -99.9 1014.6 -9.9 -9.999 -99.9 -99.99 -9.99
2018/06/22 12:30 EDT    0.55   1.81   22  100   26  69.4 -99.9 1014.6 -9.9 -9.999 -99.9 -99.99 -9.99
2018/06/22 12:36 EDT    0.62   1.90   24  102   26  69.4 -99.9 1014.6 -9.9 -9.999 -99.9 -99.99 -9.99
2018/06/22 12:42 EDT    0.70   1.98   25  100   28  69.3 -99.9 1014.6 -9.9 -9.999 -99.9 -99.99 -9.99
2018/06/22 12:48 EDT    0.79   2.05   24  102   27  69.3 -99.9 1014.7 -9.9 -9.999 -99.9 -99.99 -9.99
2018/06/22 12:54 EDT    0.88   2.14   21  103   27  69.3 -99.9 1014.8 -9.9 -9.999 -99.9 -99.99 -9.99
2018/06/22 13:00 EDT    0.97   2.21   22   98   25  69.3 -99.9 1014.8 -9.9 -9.999 -99.9 -99.99 -9.99
2018/06/22 13:06 EDT    1.07   2.31   21   95   24  68.9 -99.9 1014.7 -9.9 -9.999 -99.9 -99.99 -9.99
2018/06/22 13:12 EDT    1.17   2.40   21  105   26  68.9 -99.9 1014.8 -9.9 -9.999 -99.9 -99.99 -9.99
2018/06/22 13:18 EDT    1.28   2.49   21  105   26  68.9 -99.9 1014.8 -9.9 -9.999 -99.9 -99.99 -9.99
2018/06/22 13:24 EDT    1.38   2.58   20  103   25  69.1 -99.9 1014.9 -9.9 -9.999 -99.9 -99.99 -9.99
2018/06/22 13:30 EDT    1.50   2.67   21  101   24  68.9 -99.9 1014.8 -9.9 -9.999 -99.9 -99.99 -9.99
2018/06/22 13:36 EDT    1.61   2.78   21  107   24  68.9 -99.9 1014.7 -9.9 -9.999 -99.9 -99.99 -9.99
2018/06/22 13:42 EDT    1.73   2.87   20  102   24  68.9 -99.9 1014.7 -9.9 -9.999 -99.9 -99.99 -9.99
2018/06/22 13:48 EDT    1.85   3.00   21   99   23  68.7 -99.9 1014.5 -9.9 -9.999 -99.9 -99.99 -9.99
2018/06/22 13:54 EDT    1.98   3.11   22   98   24  68.7 -99.9 1014.4 -9.9 -9.999 -99.9 -99.99 -9.99
2018/06/22 14:00 EDT    2.10   3.22   21  104   25  68.7 -99.9 1014.3 -9.9 -9.999 -99.9 -99.99 -9.99
2018/06/22 14:06 EDT    2.23   3.32   23  100   26  68.7 -99.9 1014.3 -9.9 -9.999 -99.9 -99.99 -9.99
2018/06/22 14:12 EDT    2.36   3.45   22   99   25  68.7 -99.9 1014.2 -9.9 -9.999 -99.9 -99.99 -9.99
2018/06/22 14:18 EDT    2.49   3.55   22  100   25  68.7 -99.9 1014.1 -9.9 -9.999 -99.9 -99.99 -9.99
2018/06/22 14:24 EDT    2.62   3.67   22  100   25  68.7 -99.9 1014.1 -9.9 -9.999 -99.9 -99.99 -9.99
2018/06/22 14:30 EDT    2.75   3.80   22  101   24  68.9 -99.9 1014.2 -9.9 -9.999 -99.9 -99.99 -9.99
2018/06/22 14:36 EDT    2.88   3.89   20  100   25  68.7 -99.9 1014.3 -9.9 -9.999 -99.9 -99.99 -9.99
2018/06/22 14:42 EDT    3.01   4.04   21   99   23  68.9 -99.9 1014.1 -9.9 -9.999 -99.9 -99.99 -9.99
2018/06/22 14:48 EDT    3.14   4.17   21   97   24  68.9 -99.9 1014.0 -9.9 -9.999 -99.9 -99.99 -9.99
2018/06/22 14:54 EDT    3.26   4.30   22  100   24  68.9 -99.9 1014.0 -9.9 -9.999 -99.9 -99.99 -9.99
2018/06/22 15:00 EDT    3.39   4.41   22   99   24  69.1 -99.9 1014.1 -9.9 -9.999 -99.9 -99.99 -9.99
2018/06/22 15:06 EDT    3.52   4.51   21   99   23  69.3 -99.9 1014.1 -9.9 -9.999 -99.9 -99.99 -9.99
2018/06/22 15:12 EDT    3.64   4.65   22   97   25  69.3 -99.9 1013.9 -9.9 -9.999 -99.9 -99.99 -9.99
2018/06/22 15:18 EDT    3.76   4.77   22   94   24  69.4 -99.9 1013.9 -9.9 -9.999 -99.9 -99.99 -9.99
2018/06/22 15:24 EDT    3.88   4.89   20  100   24  69.3 -99.9 1013.9 -9.9 -9.999 -99.9 -99.99 -9.99
2018/06/22 15:30 EDT    3.99   4.99   18  100   24  69.3 -99.9 1013.9 -9.9 -9.999 -99.9 -99.99 -9.99
2018/06/22 15:36 EDT    4.11   5.09   22   94   24  69.1 -99.9 1013.8 -9.9 -9.999 -99.9 -99.99 -9.99
2018/06/22 15:42 EDT    4.22   5.19   22   95   24  68.9 -99.9 1013.7 -9.9 -9.999 -99.9 -99.99 -9.99
2018/06/22 15:48 EDT    4.32   5.28   20   93   24  68.7 -99.9 1013.7 -9.9 -9.999 -99.9 -99.99 -9.99
2018/06/22 15:54 EDT    4.43   5.38   19   93   23  68.7 -99.9 1013.8 -9.9 -9.999 -99.9 -99.99 -9.99
2018/06/22 16:00 EDT    4.53   5.49   20   94   24  68.5 -99.9 1013.6 -9.9 -9.999 -99.9 -99.99 -9.99
2018/06/22 16:06 EDT    4.62   5.56   21   95   23  68.5 -99.9 1013.6 -9.9 -9.999 -99.9 -99.99 -9.99
2018/06/22 16:12 EDT    4.71   5.65   21   92   23  68.4 -99.9 1013.5 -9.9 -9.999 -99.9 -99.99 -9.99
2018/06/22 16:18 EDT    4.80   5.72   20   95   24  68.5 -99.9 1013.6 -9.9 -9.999 -99.9 -99.99 -9.99
2018/06/22 16:24 EDT    4.88   5.79   21   92   22  68.5 -99.9 1013.6 -9.9 -9.999 -99.9 -99.99 -9.99
2018/06/22 16:30 EDT    4.96   5.84   19   91   22  68.5 -99.9 1013.6 -9.9 -9.999 -99.9 -99.99 -9.99
2018/06/22 16:36 EDT    5.03   5.92   18   91   21  68.4 -99.9 1013.7 -9.9 -9.999 -99.9 -99.99 -9.99
2018/06/22 16:42 EDT    5.09   5.96   19   96   22  68.4 -99.9 1013.8 -9.9 -9.999 -99.9 -99.99 -9.99
2018/06/22 16:48 EDT    5.15   6.01   19   93   22  68.2 -99.9 1013.8 -9.9 -9.999 -99.9 -99.99 -9.99
2018/06/22 16:54 EDT    5.21   6.05   16   95   19  67.8 -99.9 1014.0 -9.9 -9.999 -99.9 -99.99 -9.99
2018/06/22 17:00 EDT    5.25   6.08   17   91   19  68.0 -99.9 1013.8 -9.9 -9.999 -99.9 -99.99 -9.99
2018/06/22 17:06 EDT    5.30   6.13   20   89   22  68.0 -99.9 1013.4 -9.9 -9.999 -99.9 -99.99 -9.99
2018/06/22 17:12 EDT    5.33   6.13   20   84   22  68.2 -99.9 1013.2 -9.9 -9.999 -99.9 -99.99 -9.99
2018/06/22 17:18 EDT    5.36   6.17   19   81   24  68.2 -99.9 1013.4 -9.9 -9.999 -99.9 -99.99 -9.99
2018/06/22 17:24 EDT    5.38   6.19   17   81   21  68.2 -99.9 1013.5 -9.9 -9.999 -99.9 -99.99 -9.99
2018/06/22 17:30 EDT    5.40   6.17   19   82   21  68.4 -99.9 1013.3 -9.9 -9.999 -99.9 -99.99 -9.99
2018/06/22 17:36 EDT    5.41   6.16   19   84   23  68.4 -99.9 1013.2 -9.9 -9.999 -99.9 -99.99 -9.99
2018/06/22 17:42 EDT    5.41   6.14   20   83   22  68.4 -99.9 1013.0 -9.9 -9.999 -99.9 -99.99 -9.99
2018/06/22 17:48 EDT    5.41   6.16   21   82   23  68.4 -99.9 1013.0 -9.9 -9.999 -99.9 -99.99 -9.99
2018/06/22 17:54 EDT    5.40   6.14   21   82   24  68.5 -99.9 1012.9 -9.9 -9.999 -99.9 -99.99 -9.99
2018/06/22 18:00 EDT    5.38   6.13   20   94   24  68.4 -99.9 1013.2 -9.9 -9.999 -99.9 -99.99 -9.99
2018/06/22 18:06 EDT    5.36   6.08   21   90   23  68.5 -99.9 1013.2 -9.9 -9.999 -99.9 -99.99 -9.99
2018/06/22 18:12 EDT    5.33   6.06   18   91   21  68.4 -99.9 1013.3 -9.9 -9.999 -99.9 -99.99 -9.99
2018/06/22 18:18 EDT    5.29   6.01   20   91   22  68.4 -99.9 1013.1 -9.9 -9.999 -99.9 -99.99 -9.99
2018/06/22 18:24 EDT    5.25   5.96   19   85   22  68.4 -99.9 1013.1 -9.9 -9.999 -99.9 -99.99 -9.99
2018/06/22 18:30 EDT    5.20   5.90   18   88   22  68.4 -99.9 1013.2 -9.9 -9.999 -99.9 -99.99 -9.99
2018/06/22 18:36 EDT    5.14   5.87   21   97   22  68.4 -99.9 1013.1 -9.9 -9.999 -99.9 -99.99 -9.99
2018/06/22 18:42 EDT    5.08   5.80   21   97   22  68.4 -99.9 1013.1 -9.9 -9.999 -99.9 -99.99 -9.99
2018/06/22 18:48 EDT    5.02   5.75   20   96   23  68.4 -99.9 1013.1 -9.9 -9.999 -99.9 -99.99 -9.99
2018/06/22 18:54 EDT    4.95   5.70   18   95   22  68.4 -99.9 1013.2 -9.9 -9.999 -99.9 -99.99 -9.99
2018/06/22 19:00 EDT    4.87   5.61   19   90   22  68.4 -99.9 1013.2 -9.9 -9.999 -99.9 -99.99 -9.99
2018/06/22 19:06 EDT    4.79   5.52   20   87   22  68.4 -99.9 1013.2 -9.9 -9.999 -99.9 -99.99 -9.99
2018/06/22 19:12 EDT    4.70   5.43   19   91   22  68.5 -99.9 1013.3 -9.9 -9.999 -99.9 -99.99 -9.99
2018/06/22 19:18 EDT    4.61   5.34   18   92   20  68.4 -99.9 1013.4 -9.9 -9.999 -99.9 -99.99 -9.99
2018/06/22 19:24 EDT    4.52   5.27   18   99   21  68.5 -99.9 1013.4 -9.9 -9.999 -99.9 -99.99 -9.99
2018/06/22 19:30 EDT    4.42   5.16   17   94   20  68.5 -99.9 1013.5 -9.9 -9.999 -99.9 -99.99 -9.99
2018/06/22 19:36 EDT    4.32   5.05   18   97   21  68.7 -99.9 1013.5 -9.9 -9.999 -99.9 -99.99 -9.99
2018/06/22 19:42 EDT    4.21   4.96   19   95   22  68.5 -99.9 1013.2 -9.9 -9.999 -99.9 -99.99 -9.99
2018/06/22 19:48 EDT    4.10   4.86   19   93   23  68.5 -99.9 1013.1 -9.9 -9.999 -99.9 -99.99 -9.99
2018/06/22 19:54 EDT    3.98   4.79   20   94   23  68.5 -99.9 1013.0 -9.9 -9.999 -99.9 -99.99 -9.99
2018/06/22 20:00 EDT    3.87   4.67   20   98   23  68.5 -99.9 1013.0 -9.9 -9.999 -99.9 -99.99 -9.99
2018/06/22 20:06 EDT    3.74   4.56   20   95   22  68.5 -99.9 1013.1 -9.9 -9.999 -99.9 -99.99 -9.99
2018/06/22 20:12 EDT    3.62   4.45   20   95   22  68.5 -99.9 1013.1 -9.9 -9.999 -99.9 -99.99 -9.99
2018/06/22 20:18 EDT    3.50   4.31   22   96   23  68.5 -99.9 1012.9 -9.9 -9.999 -99.9 -99.99 -9.99
2018/06/22 20:24 EDT    3.37   4.20   21   94   23  68.5 -99.9 1012.9 -9.9 -9.999 -99.9 -99.99 -9.99
2018/06/22 20:30 EDT    3.24   4.12   20   94   23  68.4 -99.9 1012.9 -9.9 -9.999 -99.9 -99.99 -9.99
2018/06/22 20:36 EDT    3.11 -99.99 -999 -999 -999 -99.9 -99.9 -999.9 -9.9 -9.999 -99.9 -99.99 -9.99
2018/06/22 20:42 EDT    2.98 -99.99 -999 -999 -999 -99.9 -99.9 -999.9 -9.9 -9.999 -99.9 -99.99 -9.99
2018/06/22 20:48 EDT    2.84 -99.99 -999 -999 -999 -99.9 -99.9 -999.9 -9.9 -9.999 -99.9 -99.99 -9.99
2018/06/22 20:54 EDT    2.71 -99.99 -999 -999 -999 -99.9 -99.9 -999.9 -9.9 -9.999 -99.9 -99.99 -9.99
2018/06/22 21:00 EDT    2.58 -99.99 -999 -999 -999 -99.9 -99.9 -999.9 -9.9 -9.999 -99.9 -99.99 -9.99
2018/06/22 21:06 EDT    2.45 -99.99 -999 -999 -999 -99.9 -99.9 -999.9 -9.9 -9.999 -99.9 -99.99 -9.99
2018/06/22 21:12 EDT    2.32 -99.99 -999 -999 -999 -99.9 -99.9 -999.9 -9.9 -9.999 -99.9 -99.99 -9.99
2018/06/22 21:18 EDT    2.19 -99.99 -999 -999 -999 -99.9 -99.9 -999.9 -9.9 -9.999 -99.9 -99.99 -9.99
2018/06/22 21:24 EDT    2.06 -99.99 -999 -999 -999 -99.9 -99.9 -999.9 -9.9 -9.999 -99.9 -99.99 -9.99
2018/06/22 21:30 EDT    1.93 -99.99 -999 -999 -999 -99.9 -99.9 -999.9 -9.9 -9.999 -99.9 -99.99 -9.99
2018/06/22 21:36 EDT    1.81 -99.99 -999 -999 -999 -99.9 -99.9 -999.9 -9.9 -9.999 -99.9 -99.99 -9.99
2018/06/22 21:42 EDT    1.69 -99.99 -999 -999 -999 -99.9 -99.9 -999.9 -9.9 -9.999 -99.9 -99.99 -9.99
2018/06/22 21:48 EDT    1.58 -99.99 -999 -999 -999 -99.9 -99.9 -999.9 -9.9 -9.999 -99.9 -99.99 -9.99
2018/06/22 21:54 EDT    1.47 -99.99 -999 -999 -999 -99.9 -99.9 -999.9 -9.9 -9.999 -99.9 -99.99 -9.99
2018/06/22 22:00 EDT    1.36 -99.99 -999 -999 -999 -99.9 -99.9 -999.9 -9.9 -9.999 -99.9 -99.99 -9.99
2018/06/22 22:06 EDT    1.25 -99.99 -999 -999 -999 -99.9 -99.9 -999.9 -9.9 -9.999 -99.9 -99.99 -9.99
2018/06/22 22:12 EDT    1.16 -99.99 -999 -999 -999 -99.9 -99.9 -999.9 -9.9 -9.999 -99.9 -99.99 -9.99
2018/06/22 22:18 EDT    1.06 -99.99 -999 -999 -999 -99.9 -99.9 -999.9 -9.9 -9.999 -99.9 -99.99 -9.99
2018/06/22 22:24 EDT    0.98 -99.99 -999 -999 -999 -99.9 -99.9 -999.9 -9.9 -9.999 -99.9 -99.99 -9.99
2018/06/22 22:30 EDT    0.89 -99.99 -999 -999 -999 -99.9 -99.9 -999.9 -9.9 -9.999 -99.9 -99.99 -9.99
2018/06/22 22:36 EDT    0.82 -99.99 -999 -999 -999 -99.9 -99.9 -999.9 -9.9 -9.999 -99.9 -99.99 -9.99
2018/06/22 22:42 EDT    0.75 -99.99 -999 -999 -999 -99.9 -99.9 -999.9 -9.9 -9.999 -99.9 -99.99 -9.99
2018/06/22 22:48 EDT    0.68 -99.99 -999 -999 -999 -99.9 -99.9 -999.9 -9.9 -9.999 -99.9 -99.99 -9.99
2018/06/22 22:54 EDT    0.62 -99.99 -999 -999 -999 -99.9 -99.9 -999.9 -9.9 -9.999 -99.9 -99.99 -9.99
2018/06/22 23:00 EDT    0.57 -99.99 -999 -999 -999 -99.9 -99.9 -999.9 -9.9 -9.999 -99.9 -99.99 -9.99
2018/06/22 23:06 EDT    0.52 -99.99 -999 -999 -999 -99.9 -99.9 -999.9 -9.9 -9.999 -99.9 -99.99 -9.99
2018/06/22 23:12 EDT    0.48 -99.99 -999 -999 -999 -99.9 -99.9 -999.9 -9.9 -9.999 -99.9 -99.99 -9.99
2018/06/22 23:18 EDT    0.45 -99.99 -999 -999 -999 -99.9 -99.9 -999.9 -9.9 -9.999 -99.9 -99.99 -9.99
2018/06/22 23:24 EDT    0.42 -99.99 -999 -999 -999 -99.9 -99.9 -999.9 -9.9 -9.999 -99.9 -99.99 -9.99
2018/06/22 23:30 EDT    0.40 -99.99 -999 -999 -999 -99.9 -99.9 -999.9 -9.9 -9.999 -99.9 -99.99 -9.99
2018/06/22 23:36 EDT    0.38 -99.99 -999 -999 -999 -99.9 -99.9 -999.9 -9.9 -9.999 -99.9 -99.99 -9.99
2018/06/22 23:42 EDT    0.37 -99.99 -999 -999 -999 -99.9 -99.9 -999.9 -9.9 -9.999 -99.9 -99.99 -9.99
2018/06/22 23:48 EDT    0.36 -99.99 -999 -999 -999 -99.9 -99.9 -999.9 -9.9 -9.999 -99.9 -99.99 -9.99
2018/06/22 23:54 EDT    0.36 -99.99 -999 -999 -999 -99.9 -99.9 -999.9 -9.9 -9.999 -99.9 -99.99 -9.99
2018/06/23 00:00 EDT    0.37 -99.99 -999 -999 -999 -99.9 -99.9 -999.9 -9.9 -9.999 -99.9 -99.99 -9.99
2018/06/23 00:06 EDT    0.38 -99.99 -999 -999 -999 -99.9 -99.9 -999.9 -9.9 -9.999 -99.9 -99.99 -9.99
2018/06/23 00:12 EDT    0.40 -99.99 -999 -999 -999 -99.9 -99.9 -999.9 -9.9 -9.999 -99.9 -99.99 -9.99
2018/06/23 00:18 EDT    0.42 -99.99 -999 -999 -999 -99.9 -99.9 -999.9 -9.9 -9.999 -99.9 -99.99 -9.99
2018/06/23 00:24 EDT    0.45 -99.99 -999 -999 -999 -99.9 -99.9 -999.9 -9.9 -9.999 -99.9 -99.99 -9.99
2018/06/23 00:30 EDT    0.48 -99.99 -999 -999 -999 -99.9 -99.9 -999.9 -9.9 -9.999 -99.9 -99.99 -9.99
2018/06/23 00:36 EDT    0.52 -99.99 -999 -999 -999 -99.9 -99.9 -999.9 -9.9 -9.999 -99.9 -99.99 -9.99
2018/06/23 00:42 EDT    0.57 -99.99 -999 -999 -999 -99.9 -99.9 -999.9 -9.9 -9.999 -99.9 -99.99 -9.99
2018/06/23 00:48 EDT    0.62 -99.99 -999 -999 -999 -99.9 -99.9 -999.9 -9.9 -9.999 -99.9 -99.99 -9.99
2018/06/23 00:54 EDT    0.67 -99.99 -999 -999 -999 -99.9 -99.9 -999.9 -9.9 -9.999 -99.9 -99.99 -9.99
2018/06/23 01:00 EDT    0.73 -99.99 -999 -999 -999 -99.9 -99.9 -999.9 -9.9 -9.999 -99.9 -99.99 -9.99
2018/06/23 01:06 EDT    0.79 -99.99 -999 -999 -999 -99.9 -99.9 -999.9 -9.9 -9.999 -99.9 -99.99 -9.99
2018/06/23 01:12 EDT    0.86 -99.99 -999 -999 -999 -99.9 -99.9 -999.9 -9.9 -9.999 -99.9 -99.99 -9.99
2018/06/23 01:18 EDT    0.94 -99.99 -999 -999 -999 -99.9 -99.9 -999.9 -9.9 -9.999 -99.9 -99.99 -9.99
2018/06/23 01:24 EDT    1.01 -99.99 -999 -999 -999 -99.9 -99.9 -999.9 -9.9 -9.999 -99.9 -99.99 -9.99
2018/06/23 01:30 EDT    1.10 -99.99 -999 -999 -999 -99.9 -99.9 -999.9 -9.9 -9.999 -99.9 -99.99 -9.99
2018/06/23 01:36 EDT    1.18 -99.99 -999 -999 -999 -99.9 -99.9 -999.9 -9.9 -9.999 -99.9 -99.99 -9.99
2018/06/23 01:42 EDT    1.27 -99.99 -999 -999 -999 -99.9 -99.9 -999.9 -9.9 -9.999 -99.9 -99.99 -9.99
2018/06/23 01:48 EDT    1.37 -99.99 -999 -999 -999 -99.9 -99.9 -999.9 -9.9 -9.999 -99.9 -99.99 -9.99
2018/06/23 01:54 EDT    1.46 -99.99 -999 -999 -999 -99.9 -99.9 -999.9 -9.9 -9.999 -99.9 -99.99 -9.99
2018/06/23 02:00 EDT    1.56 -99.99 -999 -999 -999 -99.9 -99.9 -999.9 -9.9 -9.999 -99.9 -99.99 -9.99
2018/06/23 02:06 EDT    1.67 -99.99 -999 -999 -999 -99.9 -99.9 -999.9 -9.9 -9.999 -99.9 -99.99 -9.99
2018/06/23 02:12 EDT    1.77 -99.99 -999 -999 -999 -99.9 -99.9 -999.9 -9.9 -9.999 -99.9 -99.99 -9.99
2018/06/23 02:18 EDT    1.88 -99.99 -999 -999 -999 -99.9 -99.9 -999.9 -9.9 -9.999 -99.9 -99.99 -9.99
2018/06/23 02:24 EDT    1.99 -99.99 -999 -999 -999 -99.9 -99.9 -999.9 -9.9 -9.999 -99.9 -99.99 -9.99
2018/06/23 02:30 EDT    2.10 -99.99 -999 -999 -999 -99.9 -99.9 -999.9 -9.9 -9.999 -99.9 -99.99 -9.99
2018/06/23 02:36 EDT    2.21 -99.99 -999 -999 -999 -99.9 -99.9 -999.9 -9.9 -9.999 -99.9 -99.99 -9.99
2018/06/23 02:42 EDT    2.32 -99.99 -999 -999 -999 -99.9 -99.9 -999.9 -9.9 -9.999 -99.9 -99.99 -9.99
2018/06/23 02:48 EDT    2.44 -99.99 -999 -999 -999 -99.9 -99.9 -999.9 -9.9 -9.999 -99.9 -99.99 -9.99

Revised: 10/15/2013
NOAA / National Ocean Service
Web site owner: Center for Operational Oceanographic Products and Services